Time;durP1;ratioP1;P1;durP2;ratioP2;P2;SDS_P1;SDS_P2;PMS_P1;PMS_P2;Temp;Humidity;BMP_temperature;BMP_pressure;BME280_temperature;BME280_humidity;BME280_pressure;Samples;Min_cycle;Max_cycle;Signal;HPM_P1;HPM_P2
2024/03/11 00:01:18;;;;;;;31.10;20.38;;;;;;;-146.18;100.00;67994.34;10456117;27;20047;-71
2024/03/11 00:06:15;;;;;;;29.55;17.83;;;;;;;-146.18;100.00;67994.34;10455294;27;20050;-71
2024/03/11 00:11:12;;;;;;;28.52;17.85;;;;;;;-146.18;100.00;67994.34;10462557;27;20437;-71
2024/03/11 00:16:08;;;;;;;32.10;20.00;;;;;;;-146.18;100.00;67994.34;10461514;27;20043;-71
2024/03/11 00:21:05;;;;;;;28.33;19.15;;;;;;;-146.18;100.00;67994.34;10458062;27;20051;-71
2024/03/11 00:26:01;;;;;;;31.27;19.65;;;;;;;-146.18;100.00;67994.34;10451493;27;20498;-73
2024/03/11 00:31:00;;;;;;;30.35;19.45;;;;;;;-146.18;100.00;67994.34;10465059;27;20140;-71
2024/03/11 00:35:57;;;;;;;34.65;20.05;;;;;;;-146.18;100.00;67994.34;10447419;27;20043;-72
2024/03/11 00:40:55;;;;;;;34.88;19.40;;;;;;;-146.18;100.00;67994.34;10460418;27;20587;-71
2024/03/11 00:45:51;;;;;;;25.08;19.13;;;;;;;-146.18;100.00;67994.34;10460103;27;20096;-71
2024/03/11 00:50:48;;;;;;;29.25;18.55;;;;;;;-146.18;100.00;67994.34;10440920;27;20052;-71
2024/03/11 00:55:46;;;;;;;25.80;18.52;;;;;;;-146.18;100.00;67994.34;10461179;27;20047;-72
2024/03/11 01:00:42;;;;;;;30.77;19.30;;;;;;;-146.18;100.00;67994.34;10451655;27;20456;-72
2024/03/11 01:05:39;;;;;;;21.90;14.63;;;;;;;-146.18;100.00;67994.34;10469594;27;20050;-71
2024/03/11 01:10:36;;;;;;;30.92;19.70;;;;;;;-146.18;100.00;67994.34;10452316;27;20050;-70
2024/03/11 01:15:33;;;;;;;30.30;19.15;;;;;;;-146.18;100.00;67994.34;10465967;27;20499;-71
2024/03/11 01:20:29;;;;;;;15.30;11.52;;;;;;;-146.18;100.00;67994.34;10447113;27;20051;-70
2024/03/11 01:25:26;;;;;;;38.22;19.85;;;;;;;-146.18;100.00;67994.34;10445173;27;20871;-72
2024/03/11 01:30:24;;;;;;;23.92;17.48;;;;;;;-146.18;100.00;67994.34;10457009;27;20103;-70
2024/03/11 01:35:21;;;;;;;27.35;17.98;;;;;;;-146.18;100.00;67994.34;10463634;27;20043;-70
2024/03/11 01:40:18;;;;;;;24.85;18.27;;;;;;;-146.18;100.00;67994.34;10450715;27;20125;-71
2024/03/11 01:45:16;;;;;;;30.80;18.42;;;;;;;-146.18;100.00;67994.34;10449276;27;20039;-71
2024/03/11 01:50:16;;;;;;;28.30;17.83;;;;;;;-146.18;100.00;67994.34;10454929;27;20039;-71
2024/03/11 01:55:13;;;;;;;28.05;18.77;;;;;;;-146.18;100.00;67994.34;10455092;27;20498;-71
2024/03/11 02:00:10;;;;;;;33.85;18.63;;;;;;;-146.18;100.00;67994.34;10455058;27;20414;-71
2024/03/11 02:05:13;;;;;;;32.85;20.05;;;;;;;-146.18;100.00;67994.34;10462291;27;20046;-71
2024/03/11 02:10:13;;;;;;;32.60;19.15;;;;;;;-146.18;100.00;67994.34;10472049;27;20043;-72
2024/03/11 02:15:13;;;;;;;30.48;18.33;;;;;;;-146.18;100.00;67994.34;10456227;27;20489;-71
2024/03/11 02:20:17;;;;;;;30.88;18.30;;;;;;;-146.18;100.00;67994.34;10456687;27;20096;-71
2024/03/11 02:25:26;;;;;;;28.17;18.33;;;;;;;-146.18;100.00;67994.34;10447158;27;20076;-71
2024/03/11 02:30:23;;;;;;;29.00;18.92;;;;;;;-146.18;100.00;67994.34;10470438;27;20062;-71
2024/03/11 02:35:20;;;;;;;31.52;18.77;;;;;;;-146.18;100.00;67994.34;10470178;27;20059;-72
2024/03/11 02:40:19;;;;;;;30.83;18.92;;;;;;;-146.18;100.00;67994.34;10465365;27;20072;-72
2024/03/11 02:45:17;;;;;;;29.70;18.83;;;;;;;-146.18;100.00;67994.34;10461668;27;20511;-70
2024/03/11 02:50:14;;;;;;;27.15;18.98;;;;;;;-146.18;100.00;67994.34;10464377;27;20042;-73
2024/03/11 02:55:13;;;;;;;27.05;19.23;;;;;;;-146.18;100.00;67994.34;10467306;27;20046;-73
2024/03/11 03:00:11;;;;;;;32.55;20.27;;;;;;;-146.18;100.00;67994.34;10470739;27;20050;-76
2024/03/11 03:05:08;;;;;;;30.77;19.50;;;;;;;-146.18;100.00;67994.34;10479606;27;20054;-71
2024/03/11 03:10:05;;;;;;;22.90;17.00;;;;;;;-146.18;100.00;67994.34;10466392;27;20047;-71
2024/03/11 03:15:05;;;;;;;30.90;19.58;;;;;;;-146.18;100.00;67994.34;10462582;27;20073;-71
2024/03/11 03:20:05;;;;;;;30.98;20.30;;;;;;;-146.18;100.00;67994.34;10456775;27;20082;-71
2024/03/11 03:25:03;;;;;;;28.55;18.92;;;;;;;-146.18;100.00;67994.34;10460251;27;20051;-70
2024/03/11 03:29:59;;;;;;;26.75;18.60;;;;;;;-146.18;100.00;67994.34;10461050;27;20058;-70
2024/03/11 03:34:56;;;;;;;29.33;19.20;;;;;;;-146.18;100.00;67994.34;10448090;27;20494;-70
2024/03/11 03:39:52;;;;;;;31.33;17.40;;;;;;;-146.18;100.00;67994.34;10449681;27;20312;-70
2024/03/11 03:44:49;;;;;;;29.90;19.05;;;;;;;-146.18;100.00;67994.34;10448844;27;20070;-71
2024/03/11 03:49:45;;;;;;;28.45;18.67;;;;;;;-146.18;100.00;67994.34;10463379;27;20118;-70
2024/03/11 03:54:42;;;;;;;27.98;18.50;;;;;;;-146.18;100.00;67994.34;10477060;27;20072;-71
2024/03/11 03:59:38;;;;;;;28.52;18.92;;;;;;;-146.18;100.00;67994.34;10461263;27;20046;-71
2024/03/11 04:04:39;;;;;;;33.10;18.40;;;;;;;-146.18;100.00;67994.34;10459733;27;20069;-72
2024/03/11 04:09:36;;;;;;;33.22;20.73;;;;;;;-146.18;100.00;67994.34;10463609;27;20035;-71
2024/03/11 04:14:33;;;;;;;27.73;19.80;;;;;;;-146.18;100.00;67994.34;10466655;27;20043;-72
2024/03/11 04:19:30;;;;;;;33.85;20.77;;;;;;;-146.18;100.00;67994.34;10446741;27;20395;-74
2024/03/11 04:24:26;;;;;;;26.50;19.35;;;;;;;-146.18;100.00;67994.34;10466802;27;20369;-71
2024/03/11 04:29:23;;;;;;;30.42;19.45;;;;;;;-146.18;100.00;67994.34;10467162;27;20138;-71
2024/03/11 04:34:21;;;;;;;30.77;19.25;;;;;;;-146.18;100.00;67994.34;10444533;27;20050;-75
2024/03/11 04:39:17;;;;;;;30.25;19.90;;;;;;;-146.18;100.00;67994.34;10450560;27;20114;-71
2024/03/11 04:44:14;;;;;;;25.25;19.75;;;;;;;-146.18;100.00;67994.34;10460874;27;20622;-74
2024/03/11 04:49:10;;;;;;;25.05;18.77;;;;;;;-146.18;100.00;67994.34;10452908;27;20049;-75
2024/03/11 04:54:08;;;;;;;26.58;19.42;;;;;;;-146.18;100.00;67994.34;10450192;27;20039;-71
2024/03/11 04:59:05;;;;;;;31.02;20.55;;;;;;;-146.18;100.00;67994.34;10460225;27;20555;-71
2024/03/11 05:04:01;;;;;;;30.90;20.25;;;;;;;-146.18;100.00;67994.34;10445939;27;20474;-72
2024/03/11 05:09:02;;;;;;;29.77;19.88;;;;;;;-146.18;100.00;67994.34;10455198;27;20039;-71
2024/03/11 05:13:59;;;;;;;25.88;19.92;;;;;;;-146.18;100.00;67994.34;10452059;27;20413;-71
2024/03/11 05:18:55;;;;;;;33.20;21.05;;;;;;;-146.18;100.00;67994.34;10444946;27;20489;-71
2024/03/11 05:23:52;;;;;;;28.73;20.45;;;;;;;-146.18;100.00;67994.34;10462055;27;20043;-72
2024/03/11 05:28:49;;;;;;;28.65;20.67;;;;;;;-146.18;100.00;67994.34;10453181;27;20035;-71
2024/03/11 05:33:46;;;;;;;25.83;19.23;;;;;;;-146.18;100.00;67994.34;10446412;27;20049;-72
2024/03/11 05:38:42;;;;;;;28.00;19.83;;;;;;;-146.18;100.00;67994.34;10445668;27;20501;-72
2024/03/11 05:43:40;;;;;;;21.52;16.10;;;;;;;-146.18;100.00;67994.34;10453464;27;20497;-73
2024/03/11 05:48:39;;;;;;;28.73;19.92;;;;;;;-146.18;100.00;67994.34;10454516;27;20046;-71
2024/03/11 05:53:37;;;;;;;28.00;21.33;;;;;;;-146.18;100.00;67994.34;10452477;27;20080;-75
2024/03/11 05:58:33;;;;;;;26.88;19.88;;;;;;;-146.18;100.00;67994.34;10453274;27;20349;-74
2024/03/11 06:03:30;;;;;;;32.20;21.25;;;;;;;-146.18;100.00;67994.34;10441924;27;20042;-74
2024/03/11 06:08:28;;;;;;;25.33;18.63;;;;;;;-146.18;100.00;67994.34;10455699;27;20080;-73
2024/03/11 06:13:25;;;;;;;33.22;21.10;;;;;;;-146.18;100.00;67994.34;10441152;27;20066;-74
2024/03/11 06:18:22;;;;;;;30.25;20.77;;;;;;;-146.18;100.00;67994.34;10452959;27;20039;-73
2024/03/11 06:23:19;;;;;;;27.17;21.15;;;;;;;-146.18;100.00;67994.34;10454566;27;20084;-73
2024/03/11 06:28:19;;;;;;;28.30;20.25;;;;;;;-146.18;100.00;67994.34;10451853;27;20088;-75
2024/03/11 06:33:16;;;;;;;26.88;20.50;;;;;;;-146.18;100.00;67994.34;10458758;27;20113;-74
2024/03/11 06:38:14;;;;;;;26.30;19.65;;;;;;;-146.18;100.00;67994.34;10447831;27;20130;-74
2024/03/11 06:43:11;;;;;;;29.38;20.52;;;;;;;-146.18;100.00;67994.34;10454479;27;20035;-73
2024/03/11 06:48:10;;;;;;;35.75;22.17;;;;;;;-146.18;100.00;67994.34;10466181;27;20059;-73
2024/03/11 06:53:08;;;;;;;27.50;20.27;;;;;;;-146.18;100.00;67994.34;10453526;27;20043;-74
2024/03/11 06:58:05;;;;;;;22.23;18.85;;;;;;;-146.18;100.00;67994.34;10460968;27;20448;-73
2024/03/11 07:03:02;;;;;;;28.90;20.20;;;;;;;-146.18;100.00;67994.34;10452242;27;20039;-73
2024/03/11 07:07:58;;;;;;;27.83;19.33;;;;;;;-146.18;100.00;67994.34;10455106;27;20047;-74
2024/03/11 07:12:55;;;;;;;25.30;18.40;;;;;;;-146.18;100.00;67994.34;10447192;27;20108;-76
2024/03/11 07:17:51;;;;;;;28.95;19.08;;;;;;;-146.18;100.00;67994.34;10449880;27;20046;-71
2024/03/11 07:22:48;;;;;;;33.00;19.58;;;;;;;-146.18;100.00;67994.34;10463630;27;20105;-72
2024/03/11 07:27:47;;;;;;;25.02;18.75;;;;;;;-146.18;100.00;67994.34;10457524;27;20046;-72
2024/03/11 07:32:43;;;;;;;28.08;18.77;;;;;;;-146.18;100.00;67994.34;10460400;27;20256;-71
2024/03/11 07:37:40;;;;;;;26.70;19.48;;;;;;;-146.18;100.00;67994.34;10460333;27;20062;-76
2024/03/11 07:42:38;;;;;;;26.13;17.60;;;;;;;-146.18;100.00;67994.34;10446448;27;20039;-72
2024/03/11 07:47:36;;;;;;;29.17;19.60;;;;;;;-146.18;100.00;67994.34;10454724;27;20062;-77
2024/03/11 07:52:34;;;;;;;25.52;19.42;;;;;;;-146.18;100.00;67994.34;10454499;27;20039;-72
2024/03/11 07:57:31;;;;;;;27.60;19.98;;;;;;;-146.18;100.00;67994.34;10447227;27;20114;-72
2024/03/11 08:02:27;;;;;;;25.02;18.88;;;;;;;-146.18;100.00;67994.34;10464387;27;20047;-71
2024/03/11 08:07:24;;;;;;;29.02;17.90;;;;;;;-146.18;100.00;67994.34;10457200;27;20046;-73
2024/03/11 08:12:20;;;;;;;32.40;19.15;;;;;;;-146.18;100.00;67994.34;10470122;27;20813;-75
2024/03/11 08:17:17;;;;;;;28.65;18.85;;;;;;;-146.18;100.00;67994.34;10472382;27;20047;-71
2024/03/11 08:22:16;;;;;;;29.60;18.63;;;;;;;-146.18;100.00;67994.34;10448621;27;20047;-72
2024/03/11 08:27:15;;;;;;;24.00;18.58;;;;;;;-146.18;100.00;67994.34;10455438;27;20043;-73
2024/03/11 08:32:12;;;;;;;24.95;18.42;;;;;;;-146.18;100.00;67994.34;10466777;27;20516;-74
2024/03/11 08:37:09;;;;;;;21.73;18.90;;;;;;;-146.18;100.00;67994.34;10448735;27;20494;-73
2024/03/11 08:42:07;;;;;;;21.10;16.77;;;;;;;-146.18;100.00;67994.34;10454648;27;20095;-72
2024/03/11 08:47:06;;;;;;;26.77;19.50;;;;;;;-146.18;100.00;67994.34;10464333;27;20086;-74
2024/03/11 08:52:09;;;;;;;32.75;19.60;;;;;;;-146.18;100.00;67994.34;10453025;27;20070;-72
2024/03/11 08:57:05;;;;;;;20.42;17.25;;;;;;;-146.18;100.00;67994.34;10458287;27;20463;-73
2024/03/11 09:02:02;;;;;;;25.77;19.95;;;;;;;-146.18;100.00;67994.34;10445804;27;20047;-72
2024/03/11 09:06:59;;;;;;;25.38;18.67;;;;;;;-146.18;100.00;67994.34;10446927;27;20043;-73
2024/03/11 09:12:00;;;;;;;28.00;19.23;;;;;;;-146.18;100.00;67994.34;10442751;27;20046;-75
2024/03/11 09:16:58;;;;;;;19.10;14.90;;;;;;;-146.18;100.00;67994.34;10451900;27;20509;-73
2024/03/11 09:21:55;;;;;;;24.42;18.35;;;;;;;-146.18;100.00;67994.34;10451530;27;20039;-73
2024/03/11 09:26:52;;;;;;;18.40;16.25;;;;;;;-146.18;100.00;67994.34;10452088;27;20143;-73
2024/03/11 09:31:49;;;;;;;24.35;18.23;;;;;;;-146.18;100.00;67994.34;10444057;27;20526;-74
2024/03/11 09:36:46;;;;;;;24.65;17.90;;;;;;;-146.18;100.00;67994.34;10446524;27;20512;-72
2024/03/11 09:41:44;;;;;;;28.33;19.52;;;;;;;-146.18;100.00;67994.34;10446191;27;20038;-74
2024/03/11 09:46:51;;;;;;;28.90;19.77;;;;;;;-146.18;100.00;67994.34;10449243;27;20415;-73
2024/03/11 09:51:49;;;;;;;27.75;20.58;;;;;;;-146.18;100.00;67994.34;10450881;27;20039;-73
2024/03/11 09:56:47;;;;;;;23.65;17.65;;;;;;;-146.18;100.00;67994.34;10449307;27;20047;-73
2024/03/11 10:01:54;;;;;;;25.25;17.27;;;;;;;-146.18;100.00;67994.34;10461582;27;20084;-73
2024/03/11 10:07:00;;;;;;;17.88;14.85;;;;;;;-146.18;100.00;67994.34;10444018;27;20155;-77
2024/03/11 10:12:08;;;;;;;24.75;18.92;;;;;;;-146.18;100.00;67994.34;10456495;27;20490;-72
2024/03/11 10:17:20;;;;;;;27.65;20.10;;;;;;;-146.18;100.00;67994.34;10451617;27;20043;-76
2024/03/11 10:22:23;;;;;;;28.02;18.45;;;;;;;-146.18;100.00;67994.34;10455006;27;20087;-73
2024/03/11 10:27:28;;;;;;;23.60;19.13;;;;;;;-146.18;100.00;67994.34;10460736;27;20043;-73
2024/03/11 10:32:34;;;;;;;26.08;18.67;;;;;;;-146.18;100.00;67994.34;10453052;27;20072;-75
2024/03/11 10:37:30;;;;;;;26.10;19.15;;;;;;;-146.18;100.00;67994.34;10460931;27;20050;-76
2024/03/11 10:42:28;;;;;;;24.33;18.63;;;;;;;-146.18;100.00;67994.34;10449942;27;20041;-73
2024/03/11 10:47:28;;;;;;;26.35;19.05;;;;;;;-146.18;100.00;67994.34;10459342;27;20039;-73
2024/03/11 10:52:25;;;;;;;30.20;21.08;;;;;;;-146.18;100.00;67994.34;10453006;27;20051;-73
2024/03/11 10:57:43;;;;;;;27.02;19.83;;;;;;;-146.18;100.00;67994.34;10456407;27;20068;-74
2024/03/11 11:02:44;;;;;;;25.23;19.50;;;;;;;-146.18;100.00;67994.34;10454067;27;20050;-73
2024/03/11 11:07:42;;;;;;;23.73;19.75;;;;;;;-146.18;100.00;67994.34;10456234;27;20061;-75
2024/03/11 11:12:42;;;;;;;24.88;20.27;;;;;;;-146.18;100.00;67994.34;10455223;27;20067;-73
2024/03/11 11:17:41;;;;;;;28.38;20.77;;;;;;;-146.18;100.00;67994.34;10453808;27;20443;-74
2024/03/11 11:22:38;;;;;;;23.58;19.13;;;;;;;-146.18;100.00;67994.34;10450005;27;20138;-74
2024/03/11 11:27:37;;;;;;;25.27;20.20;;;;;;;-146.18;100.00;67994.34;10466948;27;20047;-74
2024/03/11 11:32:35;;;;;;;31.17;22.27;;;;;;;-146.18;100.00;67994.34;10449304;27;20103;-74
2024/03/11 11:37:33;;;;;;;25.48;20.55;;;;;;;-146.18;100.00;67994.34;10461696;27;20494;-74
2024/03/11 11:42:39;;;;;;;27.98;20.70;;;;;;;-146.18;100.00;67994.34;10449993;27;20038;-73
2024/03/11 11:47:36;;;;;;;26.20;21.58;;;;;;;-146.18;100.00;67994.34;10445425;27;20527;-74
2024/03/11 11:52:33;;;;;;;31.63;22.52;;;;;;;-146.18;100.00;67994.34;10451094;27;20047;-74
2024/03/11 11:57:29;;;;;;;29.52;21.45;;;;;;;-146.18;100.00;67994.34;10458191;27;20074;-74
2024/03/11 12:02:29;;;;;;;31.90;22.08;;;;;;;-146.18;100.00;67994.34;10452929;27;20057;-73
2024/03/11 12:07:28;;;;;;;27.20;21.23;;;;;;;-146.18;100.00;67994.34;10450266;27;20658;-73
2024/03/11 12:12:39;;;;;;;33.10;22.55;;;;;;;-146.18;100.00;67994.34;10447661;27;20083;-73
2024/03/11 12:17:35;;;;;;;29.65;23.20;;;;;;;-146.18;100.00;67994.34;10447533;27;20055;-73
2024/03/11 12:22:32;;;;;;;29.50;23.40;;;;;;;-146.18;100.00;67994.34;10445937;27;20043;-73
2024/03/11 12:27:30;;;;;;;26.92;22.23;;;;;;;-146.18;100.00;67994.34;10449583;27;20050;-73
2024/03/11 12:32:27;;;;;;;33.15;22.30;;;;;;;-146.18;100.00;67994.34;10448437;27;20491;-73
2024/03/11 12:37:24;;;;;;;28.52;22.35;;;;;;;-146.18;100.00;67994.34;10446128;27;20039;-73
2024/03/11 12:42:29;;;;;;;29.25;23.88;;;;;;;-146.18;100.00;67994.34;10451211;27;20035;-73
2024/03/11 12:47:27;;;;;;;30.95;23.65;;;;;;;-146.18;100.00;67994.34;10450267;27;20038;-73
2024/03/11 12:52:24;;;;;;;31.15;23.23;;;;;;;-146.18;100.00;67994.34;10458292;27;20039;-73
2024/03/11 12:57:23;;;;;;;31.55;25.00;;;;;;;-146.18;100.00;67994.34;10462424;27;20099;-74
2024/03/11 13:02:21;;;;;;;34.60;24.08;;;;;;;-146.18;100.00;67994.34;10459884;27;20047;-73
2024/03/11 13:07:18;;;;;;;25.77;21.63;;;;;;;-146.18;100.00;67994.34;10459012;27;20039;-74
2024/03/11 13:12:17;;;;;;;37.70;26.00;;;;;;;-146.18;100.00;67994.34;10448754;27;20088;-74
2024/03/11 13:17:16;;;;;;;30.08;23.95;;;;;;;-146.18;100.00;67994.34;10448750;27;20039;-74
2024/03/11 13:22:17;;;;;;;30.73;24.02;;;;;;;-146.18;100.00;67994.34;10457124;27;20052;-74
2024/03/11 13:27:15;;;;;;;30.08;24.45;;;;;;;-146.18;100.00;67994.34;10465360;27;20051;-74
2024/03/11 13:32:12;;;;;;;33.67;23.95;;;;;;;-146.18;100.00;67994.34;10462969;27;20049;-74
2024/03/11 13:37:09;;;;;;;31.90;25.67;;;;;;;-146.18;100.00;67994.34;10442201;27;20047;-74
2024/03/11 13:42:08;;;;;;;36.78;25.63;;;;;;;-146.18;100.00;67994.34;10443990;27;20117;-74
2024/03/11 13:47:05;;;;;;;33.22;24.38;;;;;;;-146.18;100.00;67994.34;10449873;27;20043;-74
2024/03/11 13:52:04;;;;;;;35.95;25.38;;;;;;;-146.18;100.00;67994.34;10456665;27;20115;-74
2024/03/11 13:57:01;;;;;;;41.95;27.00;;;;;;;-146.18;100.00;67994.34;10464059;27;20043;-73
2024/03/11 14:01:58;;;;;;;35.63;27.02;;;;;;;-146.18;100.00;67994.34;10464082;27;20060;-73
2024/03/11 14:06:55;;;;;;;31.77;25.65;;;;;;;-146.18;100.00;67994.34;10444608;27;20058;-74
2024/03/11 14:11:52;;;;;;;39.30;25.80;;;;;;;-146.18;100.00;67994.34;10454934;27;20046;-74
2024/03/11 14:16:49;;;;;;;36.30;24.45;;;;;;;-146.18;100.00;67994.34;10450706;27;20038;-74
2024/03/11 14:21:47;;;;;;;31.83;24.63;;;;;;;-146.18;100.00;67994.34;10452352;27;20130;-73
2024/03/11 14:26:43;;;;;;;34.75;23.85;;;;;;;-146.18;100.00;67994.34;10456334;27;20068;-74
2024/03/11 14:31:44;;;;;;;39.80;23.17;;;;;;;-146.18;100.00;67994.34;10437938;27;20039;-74
2024/03/11 14:36:43;;;;;;;36.05;25.98;;;;;;;-146.18;100.00;67994.34;10460293;27;20057;-74
2024/03/11 14:41:43;;;;;;;30.45;23.23;;;;;;;-146.18;100.00;67994.34;10447338;27;21925;-74
2024/03/11 14:46:41;;;;;;;27.88;21.77;;;;;;;-146.18;100.00;67994.34;10467595;27;20078;-75
2024/03/11 14:51:54;;;;;;;27.03;21.63;;;;;;;-146.18;100.00;67994.34;10441993;27;20549;-74
2024/03/11 14:56:55;;;;;;;30.60;22.25;;;;;;;-146.18;100.00;67994.34;10443144;27;20070;-71
2024/03/11 15:01:55;;;;;;;29.00;20.80;;;;;;;-146.18;100.00;67994.34;10459421;27;20517;-73
2024/03/11 15:06:53;;;;;;;30.20;22.00;;;;;;;-146.18;100.00;67994.34;10463220;27;20066;-72
2024/03/11 15:11:53;;;;;;;27.38;20.52;;;;;;;-146.18;100.00;67994.34;10454877;27;20505;-72
2024/03/11 15:16:55;;;;;;;29.58;20.23;;;;;;;-146.18;100.00;67994.34;10459402;27;20445;-73
2024/03/11 15:21:52;;;;;;;28.27;19.35;;;;;;;-146.18;100.00;67994.34;10447373;27;20047;-72
2024/03/11 15:26:52;;;;;;;33.88;22.92;;;;;;;-146.18;100.00;67994.34;10454827;27;20520;-71
2024/03/11 15:31:49;;;;;;;35.00;22.83;;;;;;;-146.18;100.00;67994.34;10447451;27;20050;-75
2024/03/11 15:36:47;;;;;;;32.80;21.13;;;;;;;-146.18;100.00;67994.34;10443436;27;20039;-74
2024/03/11 15:41:45;;;;;;;40.63;23.05;;;;;;;-146.18;100.00;67994.34;10471209;27;20043;-74
2024/03/11 15:46:41;;;;;;;30.33;22.30;;;;;;;-146.18;100.00;67994.34;10462776;27;20145;-74
2024/03/11 15:51:39;;;;;;;30.05;20.63;;;;;;;-146.18;100.00;67994.34;10456651;27;20095;-74
2024/03/11 15:56:35;;;;;;;30.85;21.88;;;;;;;-146.18;100.00;67994.34;10446870;27;20559;-74
2024/03/11 16:01:32;;;;;;;37.85;25.45;;;;;;;-146.18;100.00;67994.34;10450722;27;20103;-74
2024/03/11 16:06:30;;;;;;;45.03;27.13;;;;;;;-146.18;100.00;67994.34;10444695;27;20703;-73
2024/03/11 16:11:26;;;;;;;44.53;25.88;;;;;;;-146.18;100.00;67994.34;10460273;27;20080;-74
2024/03/11 16:16:23;;;;;;;41.05;26.27;;;;;;;-146.18;100.00;67994.34;10466073;27;20534;-74
2024/03/11 16:21:19;;;;;;;35.30;24.38;;;;;;;-146.18;100.00;67994.34;10468641;27;20043;-75
2024/03/11 16:26:16;;;;;;;35.83;27.10;;;;;;;-146.18;100.00;67994.34;10466741;27;20047;-75
2024/03/11 16:31:13;;;;;;;38.30;28.20;;;;;;;-146.18;100.00;67994.34;10440711;27;20138;-75
2024/03/11 16:36:10;;;;;;;42.75;28.27;;;;;;;-146.18;100.00;67994.34;10473412;27;20552;-74
2024/03/11 16:41:07;;;;;;;39.42;28.58;;;;;;;-146.18;100.00;67994.34;10445367;27;20046;-74
2024/03/11 16:46:03;;;;;;;37.47;27.08;;;;;;;-146.18;100.00;67994.34;10440844;27;20513;-74
2024/03/11 16:51:01;;;;;;;40.00;29.42;;;;;;;-146.18;100.00;67994.34;10447757;27;20547;-73
2024/03/11 16:55:58;;;;;;;38.50;29.60;;;;;;;-146.18;100.00;67994.34;10456726;27;20046;-74
2024/03/11 17:00:55;;;;;;;44.38;30.13;;;;;;;-146.18;100.00;67994.34;10455941;27;20076;-74
2024/03/11 17:05:52;;;;;;;37.97;27.85;;;;;;;-146.18;100.00;67994.34;10463294;27;20692;-74
2024/03/11 17:10:51;;;;;;;44.05;31.55;;;;;;;-146.18;100.00;67994.34;10460378;27;20118;-74
2024/03/11 17:15:49;;;;;;;47.03;30.58;;;;;;;-146.18;100.00;67994.34;10466888;27;20054;-74
2024/03/11 17:20:50;;;;;;;45.72;30.80;;;;;;;-146.18;100.00;67994.34;10453085;27;20043;-74
2024/03/11 17:25:50;;;;;;;43.22;30.02;;;;;;;-146.18;100.00;67994.34;10453773;27;20063;-74
2024/03/11 17:30:50;;;;;;;35.45;27.85;;;;;;;-146.18;100.00;67994.34;10448376;27;20464;-75
2024/03/11 17:35:49;;;;;;;42.53;30.45;;;;;;;-146.18;100.00;67994.34;10452758;27;20422;-74
2024/03/11 17:40:53;;;;;;;48.50;32.10;;;;;;;-146.18;100.00;67994.34;10449044;27;20069;-74
2024/03/11 17:45:51;;;;;;;51.13;31.38;;;;;;;-146.18;100.00;67994.34;10454045;27;20043;-75
2024/03/11 17:50:48;;;;;;;45.40;31.27;;;;;;;-146.18;100.00;67994.34;10444249;27;20050;-75
2024/03/11 17:55:46;;;;;;;52.97;32.30;;;;;;;-146.18;100.00;67994.34;10442159;27;20050;-75
2024/03/11 18:00:54;;;;;;;40.20;31.92;;;;;;;-146.18;100.00;67994.34;10440394;27;20482;-75
2024/03/11 18:05:51;;;;;;;50.35;34.05;;;;;;;-146.18;100.00;67994.34;10441199;27;20054;-76
2024/03/11 18:10:49;;;;;;;48.45;32.47;;;;;;;-146.18;100.00;67994.34;10458324;27;20046;-73
2024/03/11 18:15:49;;;;;;;47.75;33.85;;;;;;;-146.18;100.00;67994.34;10438352;27;20122;-73
2024/03/11 18:20:48;;;;;;;49.63;31.58;;;;;;;-146.18;100.00;67994.34;10450971;27;20096;-74
2024/03/11 18:25:52;;;;;;;48.15;32.53;;;;;;;-146.18;100.00;67994.34;10437896;27;20438;-73
2024/03/11 18:30:49;;;;;;;48.22;32.40;;;;;;;-146.18;100.00;67994.34;10439012;27;20571;-73
2024/03/11 18:35:47;;;;;;;51.83;33.65;;;;;;;-146.18;100.00;67994.34;10451022;27;20046;-73
2024/03/11 18:40:43;;;;;;;44.97;31.67;;;;;;;-146.18;100.00;67994.34;10445336;27;20669;-74
2024/03/11 18:45:41;;;;;;;41.70;30.77;;;;;;;-146.18;100.00;67994.34;10468118;27;20498;-73
2024/03/11 18:50:40;;;;;;;42.22;31.85;;;;;;;-146.18;100.00;67994.34;10463179;27;20038;-72
2024/03/11 18:55:36;;;;;;;47.33;32.33;;;;;;;-146.18;100.00;67994.34;10462693;27;20130;-74
2024/03/11 19:00:33;;;;;;;52.75;34.20;;;;;;;-146.18;100.00;67994.34;10478659;27;20417;-73
2024/03/11 19:05:31;;;;;;;41.90;33.10;;;;;;;-146.18;100.00;67994.34;10455354;27;20039;-73
2024/03/11 19:10:30;;;;;;;45.63;33.90;;;;;;;-146.18;100.00;67994.34;10467772;27;20051;-73
2024/03/11 19:15:30;;;;;;;46.38;34.05;;;;;;;-146.18;100.00;67994.34;10464364;27;20526;-73
2024/03/11 19:20:27;;;;;;;46.33;32.80;;;;;;;-146.18;100.00;67994.34;10451243;27;20062;-73
2024/03/11 19:25:26;;;;;;;45.92;33.70;;;;;;;-146.18;100.00;67994.34;10455059;27;20050;-73
2024/03/11 19:30:27;;;;;;;51.80;35.53;;;;;;;-146.18;100.00;67994.34;10460245;27;20096;-74
2024/03/11 19:35:25;;;;;;;48.25;35.13;;;;;;;-146.18;100.00;67994.34;10460064;27;20526;-72
2024/03/11 19:40:39;;;;;;;47.40;33.88;;;;;;;-146.18;100.00;67994.34;10454530;27;20081;-73
2024/03/11 19:46:15;;;;;;;47.65;34.42;;;;;;;-146.18;100.00;67994.34;10445234;27;20038;-73
2024/03/11 19:51:44;;;;;;;49.70;35.28;;;;;;;-146.18;100.00;67994.34;10456546;27;20611;-73
2024/03/11 19:57:18;;;;;;;48.13;34.53;;;;;;;-146.18;100.00;67994.34;10455277;27;20047;-73
2024/03/11 20:03:08;;;;;;;52.75;33.80;;;;;;;-146.18;100.00;67994.34;10454318;27;20058;-72
2024/03/11 20:08:46;;;;;;;42.50;34.22;;;;;;;-146.18;100.00;67994.34;10449501;27;20073;-72
2024/03/11 20:14:05;;;;;;;48.38;34.15;;;;;;;-146.18;100.00;67994.34;10463182;27;20399;-74
2024/03/11 20:19:39;;;;;;;53.60;36.60;;;;;;;-146.18;100.00;67994.34;10455283;27;20039;-74
2024/03/11 20:25:10;;;;;;;56.20;36.80;;;;;;;-146.18;100.00;67994.34;10452333;27;20067;-74
2024/03/11 20:30:13;;;;;;;53.92;35.83;;;;;;;-146.18;100.00;67994.34;10443703;27;20130;-75
2024/03/11 20:35:10;;;;;;;53.53;36.20;;;;;;;-146.18;100.00;67994.34;10451810;27;20074;-74
2024/03/11 20:40:10;;;;;;;52.15;36.53;;;;;;;-146.18;100.00;67994.34;10445921;27;20042;-72
2024/03/11 20:45:07;;;;;;;43.70;33.55;;;;;;;-146.18;100.00;67994.34;10450988;27;20134;-74
2024/03/11 20:50:07;;;;;;;49.92;35.83;;;;;;;-146.18;100.00;67994.34;10446261;27;20050;-72
2024/03/11 20:55:10;;;;;;;52.28;36.95;;;;;;;-146.18;100.00;67994.34;10460268;27;20049;-76
2024/03/11 21:00:16;;;;;;;53.25;36.58;;;;;;;-146.18;100.00;67994.34;10452433;27;20523;-74
2024/03/11 21:05:17;;;;;;;49.28;33.55;;;;;;;-146.18;100.00;67994.34;10447911;27;20047;-75
2024/03/11 21:10:14;;;;;;;47.45;34.22;;;;;;;-146.18;100.00;67994.34;10457148;27;20592;-76
2024/03/11 21:15:10;;;;;;;50.10;34.58;;;;;;;-146.18;100.00;67994.34;10440377;27;20395;-75
2024/03/11 21:20:23;;;;;;;42.95;33.85;;;;;;;-146.18;100.00;67994.34;10451700;27;20051;-74
2024/03/11 21:25:27;;;;;;;52.05;33.47;;;;;;;-146.18;100.00;67994.34;10442771;27;20513;-74
2024/03/11 21:30:25;;;;;;;48.67;34.35;;;;;;;-146.18;100.00;67994.34;10452039;27;20072;-73
2024/03/11 21:35:21;;;;;;;51.60;34.72;;;;;;;-146.18;100.00;67994.34;10458345;27;20042;-73
2024/03/11 21:40:20;;;;;;;52.17;35.47;;;;;;;-146.18;100.00;67994.34;10449400;27;20042;-73
2024/03/11 21:45:18;;;;;;;51.08;34.70;;;;;;;-146.18;100.00;67994.34;10447595;27;20046;-78
2024/03/11 21:50:16;;;;;;;46.85;34.30;;;;;;;-146.18;100.00;67994.34;10445208;27;20448;-74
2024/03/11 21:55:17;;;;;;;55.40;36.38;;;;;;;-146.18;100.00;67994.34;10456664;27;20038;-73